Time;durP1;ratioP1;P1;durP2;ratioP2;P2;SDS_P1;SDS_P2;PMS_P1;PMS_P2;Temp;Humidity;BMP_temperature;BMP_pressure;BME280_temperature;BME280_humidity;BME280_pressure;Samples;Min_cycle;Max_cycle;Signal;HPM_P1;HPM_P2
2023/08/19 00:01:27;;;;;;;24.08;12.35;;;28.80;92.60;;;;;;7412834;19;20007;-80
2023/08/19 00:03:58;;;;;;;23.85;12.05;;;28.80;92.60;;;;;;7394130;19;20024;-81
2023/08/19 00:06:39;;;;;;;19.58;12.48;;;28.70;92.60;;;;;;7389767;19;20402;-80
2023/08/19 00:09:09;;;;;;;24.52;11.95;;;28.70;92.60;;;;;;7391038;19;20002;-80
2023/08/19 00:11:39;;;;;;;21.77;12.85;;;28.70;92.60;;;;;;7389999;19;20006;-81
2023/08/19 00:14:09;;;;;;;21.75;11.73;;;28.80;92.70;;;;;;7392698;19;20034;-81
2023/08/19 00:16:38;;;;;;;17.70;12.33;;;28.70;92.60;;;;;;7416736;19;20433;-80
2023/08/19 00:19:10;;;;;;;25.48;12.57;;;28.70;92.60;;;;;;7394739;19;20003;-80
2023/08/19 00:21:38;;;;;;;20.15;12.07;;;28.60;92.60;;;;;;7392236;19;20002;-80
2023/08/19 00:24:08;;;;;;;15.60;11.80;;;28.70;92.70;;;;;;7388770;19;19998;-80
2023/08/19 00:26:36;;;;;;;29.80;12.88;;;28.70;92.70;;;;;;7387950;19;20006;-80
2023/08/19 00:29:05;;;;;;;19.48;12.45;;;28.70;92.80;;;;;;7387270;19;20310;-81
2023/08/19 00:31:39;;;;;;;22.65;12.00;;;28.70;92.80;;;;;;7410300;19;20006;-80
2023/08/19 00:34:10;;;;;;;27.17;11.90;;;28.60;92.80;;;;;;7387526;19;20028;-78
2023/08/19 00:36:39;;;;;;;18.70;12.48;;;28.60;92.80;;;;;;7391185;19;20014;-79
2023/08/19 00:39:08;;;;;;;19.73;12.18;;;28.60;92.80;;;;;;7401059;19;20014;-80
2023/08/19 00:41:37;;;;;;;15.10;12.05;;;28.60;92.80;;;;;;7402227;19;20010;-79
2023/08/19 00:44:07;;;;;;;23.02;11.52;;;28.60;92.90;;;;;;7400805;19;20046;-80
2023/08/19 00:46:36;;;;;;;19.33;12.23;;;28.60;92.90;;;;;;7412763;19;20237;-80
2023/08/19 00:49:05;;;;;;;21.27;12.32;;;28.60;92.90;;;;;;7386025;19;20011;-80
2023/08/19 00:51:39;;;;;;;18.58;11.65;;;28.60;92.90;;;;;;7385828;19;20022;-78
2023/08/19 00:54:08;;;;;;;22.38;12.13;;;28.50;92.80;;;;;;7386096;19;20010;-79
2023/08/19 00:56:37;;;;;;;21.40;11.80;;;28.50;92.80;;;;;;7386234;19;20011;-79
2023/08/19 00:59:06;;;;;;;18.63;11.40;;;28.50;92.70;;;;;;7386431;19;20019;-80
2023/08/19 01:01:35;;;;;;;17.02;12.02;;;28.50;92.80;;;;;;7407693;19;20095;-80
2023/08/19 01:04:04;;;;;;;19.40;11.48;;;28.50;92.70;;;;;;7385829;19;20011;-78
2023/08/19 01:06:43;;;;;;;20.08;11.63;;;28.50;92.70;;;;;;7384306;19;20287;-79
2023/08/19 01:09:24;;;;;;;18.40;11.43;;;28.50;92.80;;;;;;7384742;19;20006;-79
2023/08/19 01:12:08;;;;;;;20.48;12.55;;;28.50;92.90;;;;;;7392775;19;20006;-79
2023/08/19 01:14:49;;;;;;;28.25;12.32;;;28.50;92.90;;;;;;7391163;19;20038;-81
2023/08/19 01:17:20;;;;;;;16.42;11.88;;;28.50;92.90;;;;;;7391694;19;20007;-80
2023/08/19 01:19:50;;;;;;;25.90;12.60;;;28.50;92.90;;;;;;7393221;19;20011;-79
2023/08/19 01:22:33;;;;;;;17.58;11.18;;;28.50;92.90;;;;;;7414346;19;20233;-78
2023/08/19 01:25:05;;;;;;;14.77;11.73;;;28.50;93.00;;;;;;7389808;19;20078;-79
2023/08/19 01:27:34;;;;;;;20.13;12.65;;;28.50;93.30;;;;;;7392104;19;20060;-81
2023/08/19 01:30:03;;;;;;;16.80;9.70;;;28.50;92.90;;;;;;7392797;19;20011;-79
2023/08/19 01:32:32;;;;;;;23.90;11.02;;;28.50;92.50;;;;;;7390362;19;20022;-81
2023/08/19 01:35:01;;;;;;;17.25;10.93;;;28.40;92.50;;;;;;7390775;19;20235;-80
2023/08/19 01:37:34;;;;;;;23.48;11.52;;;28.50;92.50;;;;;;7411479;19;20034;-79
2023/08/19 01:40:09;;;;;;;16.42;11.73;;;28.50;92.60;;;;;;7392433;19;20006;-80
2023/08/19 01:42:39;;;;;;;22.55;12.25;;;28.50;92.50;;;;;;7391702;19;20018;-79
2023/08/19 01:45:10;;;;;;;29.88;16.00;;;28.50;92.50;;;;;;7392790;19;20011;-81
2023/08/19 01:47:39;;;;;;;;;;;28.50;92.40;;;;;;7390904;19;20007;-80
2023/08/19 01:50:10;;;;;;;17.95;7.78;;;28.50;92.20;;;;;;7392991;19;19947;-80
2023/08/19 01:52:39;;;;;;;18.35;8.70;;;28.40;90.80;;;;;;7412027;19;20003;-80
2023/08/19 01:55:12;;;;;;;15.57;10.25;;;28.40;90.70;;;;;;7393302;19;20084;-80
2023/08/19 01:57:40;;;;;;;14.30;8.65;;;28.50;90.70;;;;;;7392591;19;20014;-80
2023/08/19 02:00:11;;;;;;;15.25;8.77;;;28.50;90.60;;;;;;7392650;19;20060;-79
2023/08/19 02:02:39;;;;;;;18.87;8.37;;;28.50;90.40;;;;;;7392610;19;20017;-79
2023/08/19 02:05:12;;;;;;;14.15;8.38;;;28.40;89.90;;;;;;7389946;19;20385;-80
2023/08/19 02:07:41;;;;;;;15.07;8.13;;;28.40;89.60;;;;;;7414877;19;20014;-78
2023/08/19 02:10:13;;;;;;;13.85;8.48;;;28.30;89.10;;;;;;7394030;19;20362;-79
2023/08/19 02:12:42;;;;;;;10.23;7.68;;;28.40;89.60;;;;;;7393029;19;20010;-79
2023/08/19 02:15:11;;;;;;;12.55;7.78;;;28.30;89.40;;;;;;7390344;19;20038;-79
2023/08/19 02:17:40;;;;;;;21.33;8.25;;;28.30;89.20;;;;;;7390528;19;20377;-79
2023/08/19 02:20:10;;;;;;;16.60;7.97;;;28.40;89.10;;;;;;7393113;19;20023;-79
2023/08/19 02:22:41;;;;;;;15.02;7.50;;;28.40;88.90;;;;;;7413270;19;20020;-79
2023/08/19 02:25:14;;;;;;;15.63;7.40;;;28.30;88.60;;;;;;7390928;19;20362;-80
2023/08/19 02:27:44;;;;;;;15.75;8.15;;;28.40;89.40;;;;;;7403814;19;20014;-80
2023/08/19 02:30:14;;;;;;;12.95;7.68;;;28.40;88.70;;;;;;7408739;19;20006;-80
2023/08/19 02:32:43;;;;;;;15.95;7.50;;;28.50;88.70;;;;;;7406616;19;20007;-81
2023/08/19 02:35:12;;;;;;;13.65;8.50;;;28.50;88.40;;;;;;7405642;19;20011;-80
2023/08/19 02:37:41;;;;;;;13.63;8.27;;;28.50;88.30;;;;;;7414757;19;20011;-79
2023/08/19 02:40:13;;;;;;;13.27;7.97;;;28.40;88.10;;;;;;7392312;19;20006;-79
2023/08/19 02:42:42;;;;;;;13.95;8.02;;;28.40;88.20;;;;;;7390672;19;20007;-80
2023/08/19 02:45:11;;;;;;;16.65;7.93;;;28.40;88.10;;;;;;7391587;19;20251;-80
2023/08/19 02:47:40;;;;;;;13.55;7.95;;;28.40;88.00;;;;;;7390959;19;20007;-78
2023/08/19 02:50:10;;;;;;;17.30;8.18;;;28.40;88.00;;;;;;7392620;19;20015;-79
2023/08/19 02:52:39;;;;;;;12.52;7.97;;;28.40;87.80;;;;;;7412037;19;20011;-79
2023/08/19 02:55:08;;;;;;;22.17;8.05;;;28.40;87.90;;;;;;7392203;19;20018;-79
2023/08/19 02:57:40;;;;;;;12.25;7.50;;;28.30;87.60;;;;;;7389594;19;20011;-78
2023/08/19 03:00:10;;;;;;;18.95;8.13;;;28.30;87.90;;;;;;7390841;19;20003;-78
2023/08/19 03:02:39;;;;;;;13.18;7.95;;;28.20;87.70;;;;;;7396340;19;20066;-78
2023/08/19 03:05:09;;;;;;;15.27;8.05;;;28.20;87.60;;;;;;7391240;19;20010;-78
2023/08/19 03:07:38;;;;;;;15.50;7.93;;;28.20;87.50;;;;;;7410607;19;20007;-80
2023/08/19 03:10:08;;;;;;;16.67;8.02;;;28.20;87.70;;;;;;7389197;19;20002;-79
2023/08/19 03:12:39;;;;;;;14.32;8.20;;;28.10;87.40;;;;;;7389764;19;20023;-79
2023/08/19 03:15:09;;;;;;;13.27;7.50;;;28.00;87.30;;;;;;7388744;19;20389;-80
2023/08/19 03:17:38;;;;;;;16.50;7.70;;;28.00;87.30;;;;;;7389742;19;20080;-79
2023/08/19 03:20:08;;;;;;;14.73;7.88;;;27.90;87.20;;;;;;7390548;19;20220;-82
2023/08/19 03:22:38;;;;;;;14.35;6.85;;;27.90;86.90;;;;;;7411233;19;20007;-78
2023/08/19 03:25:07;;;;;;;12.85;7.43;;;27.90;86.80;;;;;;7386716;19;20027;-78
2023/08/19 03:27:36;;;;;;;9.70;7.32;;;27.90;86.50;;;;;;7388211;19;20011;-79
2023/08/19 03:30:09;;;;;;;11.65;6.90;;;27.90;86.60;;;;;;7390206;19;20035;-80
2023/08/19 03:32:38;;;;;;;11.55;7.53;;;27.90;86.40;;;;;;7387938;19;20007;-79
2023/08/19 03:35:07;;;;;;;14.95;6.93;;;27.80;85.90;;;;;;7388896;19;20015;-80
2023/08/19 03:37:36;;;;;;;11.65;7.07;;;27.90;86.00;;;;;;7409445;19;20013;-79
2023/08/19 03:40:05;;;;;;;9.98;6.93;;;27.80;86.00;;;;;;7388069;19;20015;-78
2023/08/19 03:42:34;;;;;;;12.40;6.78;;;27.80;86.10;;;;;;7389543;19;20009;-79
2023/08/19 03:45:03;;;;;;;9.85;6.63;;;27.80;85.80;;;;;;7388197;19;20031;-78
2023/08/19 03:47:34;;;;;;;12.63;7.03;;;27.70;85.40;;;;;;7387363;19;20308;-78
2023/08/19 03:50:03;;;;;;;12.73;6.65;;;27.70;85.40;;;;;;7387859;19;20069;-78
2023/08/19 03:52:32;;;;;;;10.82;6.65;;;27.70;85.30;;;;;;7409423;19;20019;-79
2023/08/19 03:55:01;;;;;;;14.38;6.03;;;27.80;85.30;;;;;;7388378;19;20267;-78
2023/08/19 03:57:30;;;;;;;12.98;6.03;;;27.80;84.60;;;;;;7389467;19;20049;-80
2023/08/19 03:59:59;;;;;;;8.95;6.03;;;27.70;84.80;;;;;;7390157;19;20015;-79
2023/08/19 04:02:28;;;;;;;14.43;5.93;;;27.70;84.20;;;;;;7389259;19;20006;-77
2023/08/19 04:05:03;;;;;;;9.55;5.80;;;27.60;84.40;;;;;;7387038;19;20439;-79
2023/08/19 04:07:32;;;;;;;7.20;5.55;;;27.60;84.30;;;;;;7406911;19;20268;-79
2023/08/19 04:10:01;;;;;;;12.52;5.85;;;27.60;84.10;;;;;;7387160;19;20350;-79
2023/08/19 04:12:29;;;;;;;11.95;6.07;;;27.60;84.10;;;;;;7386421;19;20007;-78
2023/08/19 04:15:00;;;;;;;11.10;5.38;;;27.60;84.00;;;;;;7386746;19;20043;-79
2023/08/19 04:17:29;;;;;;;8.52;5.38;;;27.60;83.70;;;;;;7388376;19;20011;-79
2023/08/19 04:19:58;;;;;;;7.90;5.30;;;27.60;83.50;;;;;;7402715;19;20015;-79
2023/08/19 04:22:29;;;;;;;11.15;5.20;;;27.60;83.60;;;;;;7421767;19;20034;-80
2023/08/19 04:24:58;;;;;;;8.65;5.00;;;27.80;83.40;;;;;;7399408;19;20015;-80
2023/08/19 04:27:27;;;;;;;7.82;4.97;;;27.80;83.10;;;;;;7393704;19;20006;-78
2023/08/19 04:29:57;;;;;;;9.40;5.28;;;27.70;82.50;;;;;;7388880;19;20007;-79
2023/08/19 04:32:25;;;;;;;7.30;4.97;;;27.70;82.60;;;;;;7389301;19;19999;-79
2023/08/19 04:34:54;;;;;;;16.17;4.93;;;27.60;82.50;;;;;;7388187;19;20019;-78
2023/08/19 04:37:23;;;;;;;11.13;5.57;;;27.70;82.60;;;;;;7411979;19;20003;-78
2023/08/19 04:39:55;;;;;;;12.05;5.03;;;27.70;82.60;;;;;;7387682;19;20006;-79
2023/08/19 04:42:23;;;;;;;12.88;5.15;;;27.70;82.50;;;;;;7387363;19;20002;-79
2023/08/19 04:44:52;;;;;;;8.13;5.30;;;27.60;82.50;;;;;;7386498;19;20349;-80
2023/08/19 04:47:21;;;;;;;7.88;4.43;;;27.70;82.60;;;;;;7394356;19;20023;-79
2023/08/19 04:49:50;;;;;;;14.90;4.40;;;27.70;82.50;;;;;;7394874;19;20021;-79
2023/08/19 04:52:18;;;;;;;10.45;4.50;;;27.70;82.40;;;;;;7413985;19;20019;-79
2023/08/19 04:54:47;;;;;;;6.95;4.30;;;27.60;82.10;;;;;;7393631;19;20010;-78
2023/08/19 04:57:19;;;;;;;9.45;4.35;;;27.60;82.30;;;;;;7395142;19;20009;-80
2023/08/19 04:59:47;;;;;;;10.02;4.30;;;27.60;82.50;;;;;;7395118;19;20026;-79
2023/08/19 05:02:16;;;;;;;9.38;4.65;;;27.60;82.20;;;;;;7395664;19;20009;-79
2023/08/19 05:04:45;;;;;;;10.43;4.45;;;27.70;82.40;;;;;;7392862;19;20011;-79
2023/08/19 05:07:14;;;;;;;9.05;4.32;;;27.60;82.30;;;;;;7415479;19;20007;-80
2023/08/19 05:09:42;;;;;;;9.88;4.10;;;27.60;82.30;;;;;;7394072;19;20014;-79
2023/08/19 05:12:12;;;;;;;7.88;4.20;;;27.60;82.20;;;;;;7395045;19;20226;-80
2023/08/19 05:14:43;;;;;;;7.78;4.10;;;27.60;82.10;;;;;;7394117;19;20006;-79
2023/08/19 05:17:14;;;;;;;7.45;4.25;;;27.60;82.20;;;;;;7394594;19;20034;-78
2023/08/19 05:19:43;;;;;;;10.27;4.10;;;27.60;82.40;;;;;;7410234;19;20014;-78
2023/08/19 05:22:12;;;;;;;8.32;4.18;;;27.60;82.60;;;;;;7414785;19;20034;-78
2023/08/19 05:24:41;;;;;;;10.95;4.20;;;27.60;83.00;;;;;;7393009;19;20027;-79
2023/08/19 05:27:10;;;;;;;7.25;4.15;;;27.60;82.70;;;;;;7394163;19;20025;-79
2023/08/19 05:29:38;;;;;;;8.90;4.32;;;27.60;83.10;;;;;;7391109;19;20006;-79
2023/08/19 05:32:10;;;;;;;8.65;4.47;;;27.60;83.10;;;;;;7391473;19;20007;-79
2023/08/19 05:34:39;;;;;;;9.80;4.20;;;27.60;83.20;;;;;;7414757;19;20015;-79
2023/08/19 05:37:07;;;;;;;12.43;4.30;;;27.60;83.00;;;;;;7392733;19;20006;-80
2023/08/19 05:39:36;;;;;;;7.32;4.30;;;27.50;82.70;;;;;;7393705;19;20035;-78
2023/08/19 05:42:06;;;;;;;9.73;4.45;;;27.50;83.00;;;;;;7392315;19;20075;-83
2023/08/19 05:44:35;;;;;;;9.00;4.45;;;27.60;83.30;;;;;;7393339;19;20011;-78
2023/08/19 05:47:03;;;;;;;7.30;4.40;;;27.60;83.80;;;;;;7389882;19;20398;-79
2023/08/19 05:49:35;;;;;;;8.82;4.50;;;27.70;84.70;;;;;;7412032;19;20315;-79
2023/08/19 05:52:04;;;;;;;5.88;4.32;;;27.70;84.80;;;;;;7391845;19;20410;-79
2023/08/19 05:54:32;;;;;;;10.90;4.38;;;27.80;85.10;;;;;;7391898;19;20006;-79
2023/08/19 05:57:01;;;;;;;11.20;5.13;;;27.80;85.30;;;;;;7390707;19;20362;-79
2023/08/19 05:59:30;;;;;;;8.52;4.65;;;27.80;85.70;;;;;;7390577;19;20031;-79
2023/08/19 06:01:59;;;;;;;12.30;4.72;;;27.80;85.90;;;;;;7393256;19;20024;-79
2023/08/19 06:04:27;;;;;;;7.40;4.30;;;27.80;85.90;;;;;;7411654;19;20026;-79
2023/08/19 06:06:59;;;;;;;8.90;4.57;;;27.80;85.80;;;;;;7391450;19;20007;-79
2023/08/19 06:09:27;;;;;;;10.98;4.55;;;27.80;85.90;;;;;;7411564;19;20010;-79
2023/08/19 06:11:56;;;;;;;6.90;4.10;;;27.80;85.90;;;;;;7414107;19;20006;-79
2023/08/19 06:14:25;;;;;;;7.60;4.10;;;27.80;85.70;;;;;;7411761;19;20022;-79
2023/08/19 06:16:54;;;;;;;8.07;4.30;;;27.80;85.80;;;;;;7409071;19;20007;-78
2023/08/19 06:19:23;;;;;;;11.40;4.38;;;27.80;85.50;;;;;;7414194;19;20023;-79
2023/08/19 06:21:53;;;;;;;7.53;3.67;;;27.80;85.10;;;;;;7390640;19;20028;-78
2023/08/19 06:24:25;;;;;;;13.50;3.53;;;27.80;84.60;;;;;;7389945;19;20066;-78
2023/08/19 06:26:53;;;;;;;7.82;3.70;;;27.70;83.20;;;;;;7390506;19;20027;-79
2023/08/19 06:29:22;;;;;;;8.52;4.05;;;27.70;82.90;;;;;;7391177;19;20043;-78
2023/08/19 06:31:51;;;;;;;4.70;2.70;;;27.60;83.00;;;;;;7390713;19;20007;-80
2023/08/19 06:34:21;;;;;;;5.82;2.72;;;27.60;83.00;;;;;;7410943;19;20382;-79
2023/08/19 06:36:53;;;;;;;7.32;2.92;;;27.50;82.60;;;;;;7391421;19;20375;-80
2023/08/19 06:39:28;;;;;;;6.10;2.95;;;27.50;82.80;;;;;;7392384;19;20035;-78
2023/08/19 06:42:03;;;;;;;9.20;2.95;;;27.50;83.30;;;;;;7391479;19;20027;-80
2023/08/19 06:44:33;;;;;;;6.95;2.97;;;27.40;83.20;;;;;;7391188;19;20003;-80
2023/08/19 06:47:04;;;;;;;6.50;2.72;;;27.50;82.90;;;;;;7390081;19;20051;-80
2023/08/19 06:49:34;;;;;;;10.52;2.75;;;27.50;82.90;;;;;;7410576;19;20379;-80
2023/08/19 06:52:03;;;;;;;7.28;2.83;;;27.50;82.60;;;;;;7392215;19;20006;-79
2023/08/19 06:54:35;;;;;;;7.55;3.00;;;27.60;82.70;;;;;;7391893;19;20003;-78
2023/08/19 06:57:09;;;;;;;5.43;3.10;;;27.50;83.70;;;;;;7389015;19;20010;-79
2023/08/19 06:59:40;;;;;;;8.50;2.90;;;27.60;82.90;;;;;;7390988;19;20006;-79
2023/08/19 07:02:10;;;;;;;10.10;3.50;;;27.50;82.70;;;;;;7391643;19;20010;-80
2023/08/19 07:04:40;;;;;;;7.38;2.85;;;27.60;83.10;;;;;;7413805;19;20010;-80
2023/08/19 07:07:11;;;;;;;5.05;3.47;;;27.60;83.00;;;;;;7393361;19;20011;-81
2023/08/19 07:09:43;;;;;;;10.55;3.40;;;27.60;82.80;;;;;;7388437;19;20035;-80
2023/08/19 07:12:13;;;;;;;12.60;4.10;;;27.60;83.30;;;;;;7395954;19;20010;-80
2023/08/19 07:14:43;;;;;;;6.88;3.03;;;27.70;83.30;;;;;;7393251;19;20030;-80
2023/08/19 07:17:12;;;;;;;11.63;3.28;;;27.80;82.90;;;;;;7390757;19;20014;-80
2023/08/19 07:19:43;;;;;;;5.25;3.20;;;27.80;82.60;;;;;;7411200;19;20378;-78
2023/08/19 07:22:12;;;;;;;6.00;3.38;;;27.90;82.70;;;;;;7391725;19;20022;-82
2023/08/19 07:24:44;;;;;;;8.10;3.22;;;28.00;82.90;;;;;;7388230;19;20038;-80
2023/08/19 07:27:17;;;;;;;6.07;2.92;;;28.10;83.00;;;;;;7390692;19;20420;-79
2023/08/19 07:29:50;;;;;;;14.07;2.67;;;28.20;82.50;;;;;;7388388;19;20302;-79
2023/08/19 07:32:21;;;;;;;8.10;3.50;;;28.20;81.90;;;;;;7387189;19;20002;-79
2023/08/19 07:34:50;;;;;;;4.88;2.92;;;28.20;81.60;;;;;;7389859;19;20010;-80
2023/08/19 07:37:19;;;;;;;6.32;3.28;;;28.10;81.50;;;;;;7409762;19;20110;-79
2023/08/19 07:39:53;;;;;;;16.98;3.20;;;28.10;81.50;;;;;;7388990;19;20007;-80
2023/08/19 07:42:21;;;;;;;8.52;3.10;;;27.90;81.70;;;;;;7388413;19;20007;-80
2023/08/19 07:44:50;;;;;;;10.52;3.15;;;27.80;82.10;;;;;;7389280;19;20524;-79
2023/08/19 07:47:19;;;;;;;6.50;2.88;;;27.70;82.20;;;;;;7385640;19;20002;-79
2023/08/19 07:49:48;;;;;;;9.15;3.03;;;27.60;82.60;;;;;;7388886;19;20027;-80
2023/08/19 07:52:16;;;;;;;8.13;2.83;;;27.40;83.20;;;;;;7409885;19;20329;-80
2023/08/19 07:54:45;;;;;;;6.63;3.28;;;27.50;83.60;;;;;;7389034;19;20358;-80
2023/08/19 07:57:16;;;;;;;6.38;3.15;;;27.40;83.60;;;;;;7389706;19;20039;-80
2023/08/19 07:59:45;;;;;;;5.95;2.97;;;27.30;83.70;;;;;;7403851;19;20014;-80
2023/08/19 08:02:14;;;;;;;8.90;3.72;;;27.20;83.80;;;;;;7410450;19;20011;-80
2023/08/19 08:04:44;;;;;;;8.02;3.15;;;27.20;83.90;;;;;;7430799;19;20015;-79
2023/08/19 08:07:13;;;;;;;6.18;3.28;;;27.20;84.20;;;;;;7410213;19;20014;-79
2023/08/19 08:09:43;;;;;;;7.55;3.60;;;27.30;84.80;;;;;;7393438;19;20413;-79
2023/08/19 08:12:12;;;;;;;6.75;3.72;;;27.30;85.90;;;;;;7387913;19;20007;-79
2023/08/19 08:14:43;;;;;;;6.57;3.72;;;27.20;86.40;;;;;;7387636;19;20011;-79
2023/08/19 08:17:12;;;;;;;6.82;4.05;;;27.20;86.30;;;;;;7387717;19;20023;-79
2023/08/19 08:19:41;;;;;;;6.47;3.80;;;27.20;87.90;;;;;;7407125;19;20011;-79
2023/08/19 08:22:09;;;;;;;7.32;3.38;;;27.20;88.00;;;;;;7387647;19;20062;-79
2023/08/19 08:24:39;;;;;;;9.50;3.90;;;27.10;87.90;;;;;;7386194;19;20014;-79
2023/08/19 08:27:08;;;;;;;7.32;3.92;;;27.00;87.90;;;;;;7387976;19;20058;-79
2023/08/19 08:29:37;;;;;;;13.95;3.97;;;26.90;88.50;;;;;;7386382;19;20015;-78
2023/08/19 08:32:09;;;;;;;9.15;4.00;;;26.90;90.00;;;;;;7387698;19;20071;-79
2023/08/19 08:34:38;;;;;;;6.78;3.72;;;26.90;90.10;;;;;;7407798;19;20011;-79
2023/08/19 08:37:07;;;;;;;11.00;3.80;;;26.90;90.00;;;;;;7389008;19;20066;-79
2023/08/19 08:39:36;;;;;;;12.45;4.20;;;26.90;90.40;;;;;;7387325;19;20010;-79
2023/08/19 08:42:07;;;;;;;11.60;5.20;;;26.80;90.60;;;;;;7387820;19;20007;-79
2023/08/19 08:44:37;;;;;;;14.00;4.70;;;26.80;91.10;;;;;;7386483;19;20011;-79
2023/08/19 08:47:11;;;;;;;8.10;4.15;;;26.80;91.20;;;;;;7385795;19;20010;-78
2023/08/19 08:49:40;;;;;;;13.30;4.57;;;26.80;91.00;;;;;;7407889;19;20031;-79
2023/08/19 08:52:10;;;;;;;12.07;4.72;;;26.80;91.10;;;;;;7385670;19;20010;-79
2023/08/19 08:54:39;;;;;;;19.75;8.65;;;26.70;91.70;;;;;;7384765;19;20022;-80
2023/08/19 08:57:08;;;;;;;21.75;8.82;;;26.70;92.40;;;;;;7385526;19;20030;-80
2023/08/19 08:59:37;;;;;;;8.30;4.82;;;26.60;92.90;;;;;;7385228;19;20276;-79
2023/08/19 09:02:09;;;;;;;13.02;5.30;;;26.70;93.00;;;;;;7386322;19;20018;-79
2023/08/19 09:04:38;;;;;;;11.85;5.60;;;26.70;92.80;;;;;;7407777;19;20229;-79
2023/08/19 09:07:11;;;;;;;13.00;6.00;;;26.70;92.90;;;;;;7386132;19;20014;-79
2023/08/19 09:09:42;;;;;;;9.48;5.53;;;26.70;93.10;;;;;;7384352;19;20063;-79
2023/08/19 09:12:14;;;;;;;10.52;4.78;;;26.70;93.00;;;;;;7384814;19;20068;-78
2023/08/19 09:14:44;;;;;;;12.65;4.97;;;26.70;92.40;;;;;;7383901;19;20010;-79
2023/08/19 09:17:17;;;;;;;10.87;4.83;;;26.70;92.20;;;;;;7385052;19;20010;-79
2023/08/19 09:19:46;;;;;;;12.77;5.32;;;26.70;92.30;;;;;;7385940;19;20007;-80
2023/08/19 09:22:22;;;;;;;10.80;5.07;;;26.70;92.40;;;;;;7405331;19;20017;-81
2023/08/19 09:24:53;;;;;;;17.45;5.53;;;26.60;92.30;;;;;;7383523;19;20006;-79
2023/08/19 09:27:28;;;;;;;10.57;4.90;;;26.60;92.70;;;;;;7384839;19;20398;-79
2023/08/19 09:29:57;;;;;;;11.05;4.85;;;26.60;92.50;;;;;;7385709;19;20066;-79
2023/08/19 09:32:39;;;;;;;10.52;4.97;;;26.70;92.30;;;;;;7389283;19;19998;-80
2023/08/19 09:35:11;;;;;;;8.38;4.93;;;26.70;92.70;;;;;;7388269;19;20006;-78
2023/08/19 09:37:40;;;;;;;10.77;5.00;;;26.70;92.30;;;;;;7412827;19;20013;-80
2023/08/19 09:40:12;;;;;;;10.70;5.07;;;26.60;91.90;;;;;;7392277;19;20007;-79
2023/08/19 09:42:41;;;;;;;8.90;4.47;;;26.50;92.10;;;;;;7391528;19;20074;-79
2023/08/19 09:45:18;;;;;;;10.93;4.70;;;26.50;92.40;;;;;;7392526;19;20038;-80
2023/08/19 09:47:51;;;;;;;11.70;4.90;;;26.40;92.00;;;;;;7390871;19;20019;-79
2023/08/19 09:50:22;;;;;;;10.82;5.40;;;26.40;92.30;;;;;;7393139;19;20002;-79
2023/08/19 09:52:58;;;;;;;13.02;5.32;;;26.40;92.10;;;;;;7402509;19;20018;-77
2023/08/19 09:55:29;;;;;;;13.75;5.30;;;26.30;92.50;;;;;;7422029;19;20038;-80
2023/08/19 09:57:58;;;;;;;13.65;5.15;;;26.40;93.00;;;;;;7405755;19;20006;-79
2023/08/19 10:00:27;;;;;;;13.60;5.55;;;26.40;93.30;;;;;;7396507;19;20106;-79
2023/08/19 10:02:59;;;;;;;11.38;5.60;;;26.40;93.50;;;;;;7390309;19;20021;-78
2023/08/19 10:05:30;;;;;;;9.43;5.10;;;26.40;93.50;;;;;;7390987;19;20366;-78
2023/08/19 10:08:01;;;;;;;;;;;26.40;93.60;;;;;;7392155;19;20003;-81
2023/08/19 10:10:33;;;;;;;16.95;5.60;;;26.50;93.90;;;;;;7413055;19;19903;-78
2023/08/19 10:13:04;;;;;;;14.63;4.63;;;26.50;93.70;;;;;;7391424;19;20017;-79
2023/08/19 10:15:53;;;;;;;12.57;5.20;;;26.50;93.20;;;;;;7390840;19;20014;-87
2023/08/19 10:18:29;;;;;;;11.60;5.35;;;26.50;93.30;;;;;;7393647;19;20031;-79
2023/08/19 10:21:01;;;;;;;11.13;5.47;;;26.60;93.40;;;;;;7393535;19;20007;-80
2023/08/19 10:23:31;;;;;;;9.20;4.80;;;26.70;93.70;;;;;;7390604;19;20434;-82
2023/08/19 10:26:01;;;;;;;13.45;5.82;;;26.90;93.50;;;;;;7392213;19;20007;-81
2023/08/19 10:28:38;;;;;;;13.57;5.80;;;27.00;93.20;;;;;;7413630;19;20030;-81
2023/08/19 10:31:12;;;;;;;9.88;5.15;;;27.10;93.20;;;;;;7393486;19;20003;-81
2023/08/19 10:33:55;;;;;;;9.20;4.68;;;27.20;93.30;;;;;;7392730;19;20317;-81
2023/08/19 10:36:30;;;;;;;8.90;4.75;;;27.20;93.10;;;;;;7392710;19;20003;-79
2023/08/19 10:39:00;;;;;;;11.45;4.53;;;27.20;92.80;;;;;;7390559;19;20078;-78
2023/08/19 10:41:33;;;;;;;11.63;4.80;;;27.30;92.50;;;;;;7390158;19;20010;-78
2023/08/19 10:44:03;;;;;;;7.85;4.38;;;27.30;92.70;;;;;;7391336;19;20017;-79
2023/08/19 10:46:36;;;;;;;12.00;3.70;;;27.40;92.80;;;;;;7413765;19;20006;-78
2023/08/19 10:49:09;;;;;;;8.45;3.72;;;27.40;91.20;;;;;;7388939;19;20023;-80
2023/08/19 10:51:50;;;;;;;7.30;4.05;;;27.50;91.40;;;;;;7387803;19;20007;-78
2023/08/19 10:54:40;;;;;;;10.38;3.80;;;27.50;91.70;;;;;;7391512;19;20007;-79
2023/08/19 10:57:16;;;;;;;11.77;3.97;;;27.60;91.60;;;;;;7391106;19;20010;-77
2023/08/19 10:59:46;;;;;;;6.50;3.20;;;27.60;90.90;;;;;;7389560;19;20010;-78
2023/08/19 11:02:16;;;;;;;15.23;3.20;;;27.50;90.20;;;;;;7392288;19;20007;-79
2023/08/19 11:04:50;;;;;;;6.13;2.95;;;27.60;90.50;;;;;;7397466;19;20021;-80
2023/08/19 11:07:19;;;;;;;9.10;2.70;;;27.70;91.00;;;;;;7414622;19;20048;-79
2023/08/19 11:09:49;;;;;;;4.40;2.78;;;27.70;89.60;;;;;;7395351;19;20244;-78
2023/08/19 11:12:20;;;;;;;4.27;2.90;;;27.60;89.00;;;;;;7391557;19;20007;-78
2023/08/19 11:14:50;;;;;;;5.53;2.30;;;27.70;89.90;;;;;;7393036;19;20236;-78
2023/08/19 11:17:20;;;;;;;9.93;2.57;;;27.80;89.00;;;;;;7390192;19;20028;-78
2023/08/19 11:19:51;;;;;;;6.13;2.72;;;27.90;89.00;;;;;;7393423;19;20275;-80
2023/08/19 11:22:32;;;;;;;6.45;2.42;;;27.90;89.00;;;;;;7414168;19;20015;-78
2023/08/19 11:25:00;;;;;;;6.43;2.10;;;27.90;87.50;;;;;;7388473;19;19999;-78
2023/08/19 11:27:29;;;;;;;5.88;2.53;;;27.80;87.10;;;;;;7386485;19;20032;-78
2023/08/19 11:29:58;;;;;;;5.60;3.03;;;27.80;86.50;;;;;;7389428;19;20027;-79
2023/08/19 11:32:29;;;;;;;6.22;2.58;;;27.80;86.90;;;;;;7393860;19;20062;-78
2023/08/19 11:35:00;;;;;;;6.57;3.38;;;27.70;86.40;;;;;;7391822;19;20477;-78
2023/08/19 11:37:56;;;;;;;8.32;1.95;;;27.70;87.60;;;;;;7416157;19;20014;-82
2023/08/19 11:40:35;;;;;;;2.55;1.90;;;27.70;87.70;;;;;;7384857;19;20011;-79
2023/08/19 11:43:13;;;;;;;5.00;1.85;;;27.70;87.00;;;;;;7386855;19;20006;-82
2023/08/19 11:45:47;;;;;;;5.65;1.85;;;27.70;85.80;;;;;;7399457;19;20002;-81
2023/08/19 11:48:16;;;;;;;5.63;1.77;;;27.70;85.80;;;;;;7398362;19;20002;-81
2023/08/19 11:50:54;;;;;;;4.93;1.83;;;27.70;86.00;;;;;;7398765;19;20002;-80
2023/08/19 11:53:27;;;;;;;3.17;2.00;;;27.70;86.90;;;;;;7392563;19;20010;-81
2023/08/19 11:56:04;;;;;;;6.05;1.98;;;27.70;85.70;;;;;;7381681;19;20017;-81
2023/08/19 11:58:52;;;;;;;3.38;1.42;;;27.70;86.10;;;;;;7404503;19;20007;-80
2023/08/19 12:01:22;;;;;;;3.95;1.83;;;27.80;86.10;;;;;;7383908;19;20567;-81
2023/08/19 12:03:54;;;;;;;4.35;2.10;;;27.80;85.90;;;;;;7383470;19;20030;-81
2023/08/19 12:06:26;;;;;;;8.45;2.80;;;27.90;85.20;;;;;;7382670;19;20009;-82
2023/08/19 12:09:10;;;;;;;5.22;2.00;;;28.00;85.70;;;;;;7382097;19;20022;-81
2023/08/19 12:11:51;;;;;;;6.57;2.50;;;28.10;86.70;;;;;;7383382;19;20007;-81
2023/08/19 12:14:22;;;;;;;2.43;1.57;;;28.20;86.90;;;;;;7382675;19;20024;-82
2023/08/19 12:16:54;;;;;;;6.15;2.40;;;28.30;86.00;;;;;;7384082;19;20011;-82
2023/08/19 12:19:24;;;;;;;7.75;2.15;;;28.40;86.20;;;;;;7405877;19;20010;-81
2023/08/19 12:21:57;;;;;;;5.05;1.70;;;28.60;84.90;;;;;;7383615;19;20051;-82
2023/08/19 12:24:26;;;;;;;2.78;1.90;;;28.60;84.10;;;;;;7382056;19;20031;-81
2023/08/19 12:27:04;;;;;;;3.05;1.77;;;28.70;84.30;;;;;;7383636;19;20271;-82
2023/08/19 12:29:41;;;;;;;5.18;1.70;;;28.80;83.40;;;;;;7382500;19;20381;-81
2023/08/19 12:32:30;;;;;;;3.83;1.70;;;28.80;83.30;;;;;;7382127;19;20010;-81
2023/08/19 12:35:05;;;;;;;3.25;1.70;;;28.90;83.60;;;;;;7383609;19;20007;-82
2023/08/19 12:38:08;;;;;;;2.92;1.55;;;28.90;81.90;;;;;;7403224;19;20015;-81
2023/08/19 12:47:02;;;;;;;6.82;2.20;;;28.90;81.50;;;;;;7382394;19;20041;-82
2023/08/19 12:49:37;;;;;;;4.57;1.67;;;29.00;82.30;;;;;;7381966;19;20010;-80
2023/08/19 12:52:08;;;;;;;4.97;1.92;;;29.00;80.50;;;;;;7383414;19;20024;-81
2023/08/19 12:54:41;;;;;;;5.55;2.25;;;29.00;80.60;;;;;;7381682;19;20007;-80
2023/08/19 12:57:13;;;;;;;3.15;1.75;;;29.10;81.50;;;;;;7381698;19;20006;-82
2023/08/19 12:59:58;;;;;;;9.18;2.88;;;29.10;82.80;;;;;;7381661;19;20003;-82
2023/08/19 13:02:30;;;;;;;5.10;2.08;;;29.30;82.20;;;;;;7381671;19;20014;-82
2023/08/19 13:05:04;;;;;;;5.68;2.38;;;29.30;80.10;;;;;;7382668;19;20074;-81
2023/08/19 13:07:50;;;;;;;5.72;1.92;;;29.30;79.80;;;;;;7406996;19;20059;-81